createdAt,value
2018-07-04T00:04:08.783Z,17.70
2018-07-04T00:09:24.874Z,17.60
2018-07-04T00:14:40.558Z,17.50
2018-07-04T00:19:56.074Z,17.40
2018-07-04T00:25:12.065Z,17.30
2018-07-04T00:30:27.844Z,17.30
2018-07-04T00:35:43.538Z,17.30
2018-07-04T00:40:58.979Z,17.40
2018-07-04T00:46:14.629Z,17.50
2018-07-04T00:51:30.315Z,17.60
2018-07-04T00:56:45.886Z,17.60
2018-07-04T01:02:01.359Z,17.50
2018-07-04T01:07:17.077Z,17.40
2018-07-04T01:12:32.694Z,17.30
2018-07-04T01:17:48.570Z,17.30
2018-07-04T01:23:04.470Z,17.30
2018-07-04T01:28:20.223Z,17.30
2018-07-04T01:33:36.050Z,17.30
2018-07-04T01:38:51.512Z,17.30
2018-07-04T01:44:07.224Z,17.10
2018-07-04T01:49:22.821Z,17.10
2018-07-04T01:54:38.516Z,17.10
2018-07-04T01:59:54.301Z,17.00
2018-07-04T02:05:10.002Z,16.90
2018-07-04T02:10:25.602Z,16.80
2018-07-04T02:15:41.269Z,16.80
2018-07-04T02:20:57.071Z,16.80
2018-07-04T02:26:12.654Z,16.80
2018-07-04T02:31:28.364Z,16.90
2018-07-04T02:36:44.261Z,16.90
2018-07-04T02:42:00.179Z,16.90
2018-07-04T02:47:21.126Z,16.80
2018-07-04T02:52:36.869Z,16.70
2018-07-04T02:57:52.567Z,16.80
2018-07-04T03:03:07.987Z,16.70
2018-07-04T03:08:23.952Z,16.70
2018-07-04T03:13:39.762Z,16.70
2018-07-04T03:18:55.376Z,16.50
2018-07-04T03:24:11.143Z,16.40
2018-07-04T03:29:26.838Z,16.40
2018-07-04T03:39:52.108Z,16.50
2018-07-04T03:45:08.117Z,16.60
2018-07-04T03:50:23.652Z,16.50
2018-07-04T03:55:39.322Z,16.50
2018-07-04T04:00:55.302Z,16.50
2018-07-04T04:06:10.944Z,16.50
2018-07-04T04:11:27.448Z,16.50
2018-07-04T04:16:43.240Z,16.60
2018-07-04T04:21:58.848Z,16.70
2018-07-04T04:27:14.727Z,16.70
2018-07-04T04:32:30.451Z,16.70
2018-07-04T04:37:45.896Z,16.80
2018-07-04T04:43:01.809Z,16.90
2018-07-04T04:48:17.503Z,17.10
2018-07-04T04:53:33.498Z,17.20
2018-07-04T04:58:48.972Z,17.20
2018-07-04T05:04:04.686Z,17.30
2018-07-04T05:09:20.569Z,17.40
2018-07-04T05:14:36.288Z,17.70
2018-07-04T05:25:01.515Z,18.60
2018-07-04T05:30:17.319Z,19.00
2018-07-04T05:35:33.116Z,19.50
2018-07-04T05:45:58.572Z,19.90
2018-07-04T05:51:14.350Z,20.20
2018-07-04T05:56:30.051Z,20.10
2018-07-04T06:01:45.962Z,20.10
2018-07-04T06:07:01.741Z,20.00
2018-07-04T06:12:17.621Z,20.10
2018-07-04T06:17:33.241Z,20.10
2018-07-04T06:22:49.115Z,20.20
2018-07-04T06:28:04.806Z,20.20
2018-07-04T06:33:20.483Z,20.10
2018-07-04T06:38:23.928Z,20.00
2018-07-04T06:43:28.361Z,19.90
2018-07-04T06:48:31.558Z,19.90
2018-07-04T06:53:37.001Z,20.10
2018-07-04T06:58:40.246Z,20.70
2018-07-04T07:03:56.026Z,21.20
2018-07-04T07:09:12.042Z,21.30
2018-07-04T07:14:28.315Z,21.50
2018-07-04T07:19:43.922Z,21.50
2018-07-04T07:24:59.927Z,22.00
2018-07-04T07:30:15.820Z,22.20
2018-07-04T07:40:41.026Z,22.30
2018-07-04T07:45:56.638Z,22.20
2018-07-04T07:51:12.862Z,22.50
2018-07-04T07:56:28.510Z,22.40
2018-07-04T08:01:44.138Z,22.60
2018-07-04T08:06:59.925Z,22.90
2018-07-04T08:12:15.304Z,22.90
2018-07-04T08:17:30.791Z,23.00
2018-07-04T08:22:46.596Z,23.50
2018-07-04T08:28:02.904Z,23.50
2018-07-04T08:33:18.568Z,24.30
2018-07-04T08:38:34.270Z,24.70
2018-07-04T08:43:49.893Z,25.10
2018-07-04T08:49:05.881Z,25.80
2018-07-04T08:54:21.670Z,25.70
2018-07-04T08:59:37.263Z,25.20
2018-07-04T09:04:53.055Z,25.70
2018-07-04T09:10:08.876Z,25.60
2018-07-04T09:15:24.441Z,25.40
2018-07-04T09:20:40.356Z,25.70
2018-07-04T09:25:56.221Z,26.40
2018-07-04T09:31:12.040Z,26.30
2018-07-04T09:36:27.695Z,26.80
2018-07-04T09:41:43.616Z,27.40
2018-07-04T09:46:59.258Z,27.00
2018-07-04T09:52:15.084Z,27.10
2018-07-04T09:57:30.885Z,27.00
2018-07-04T10:02:46.802Z,27.10
2018-07-04T10:08:02.509Z,27.50
2018-07-04T10:13:18.181Z,27.50
2018-07-04T10:18:33.866Z,27.90
2018-07-04T10:23:49.646Z,28.40
2018-07-04T10:29:05.355Z,28.40
2018-07-04T10:34:21.206Z,28.30
2018-07-04T10:39:37.432Z,28.30
2018-07-04T10:44:53.253Z,28.30
2018-07-04T10:50:10.681Z,27.30
2018-07-04T10:55:26.207Z,26.50
2018-07-04T11:00:41.900Z,26.40
2018-07-04T11:05:57.871Z,26.50
2018-07-04T11:16:23.231Z,27.30
2018-07-04T11:21:38.891Z,27.50
2018-07-04T11:26:54.374Z,27.60
2018-07-04T11:32:10.403Z,27.10
2018-07-04T11:37:26.183Z,26.60
2018-07-04T11:47:39.264Z,25.40
2018-07-04T11:52:42.430Z,24.80
2018-07-04T11:57:45.866Z,24.70
2018-07-04T12:02:48.979Z,24.30
2018-07-04T12:07:52.260Z,24.40
2018-07-04T12:12:55.465Z,24.30
2018-07-04T12:23:02.249Z,24.50
2018-07-04T12:28:05.459Z,24.80
2018-07-04T12:33:08.737Z,25.10
2018-07-04T12:38:12.077Z,25.20
2018-07-04T12:43:15.217Z,25.40
2018-07-04T12:48:18.578Z,25.60
2018-07-04T12:53:21.874Z,25.40
2018-07-04T12:58:37.431Z,26.30
2018-07-04T13:03:52.926Z,30.00
2018-07-04T13:09:08.628Z,32.60
2018-07-04T13:14:24.206Z,34.40
2018-07-04T13:19:39.753Z,34.80
2018-07-04T13:24:55.286Z,32.30
2018-07-04T13:30:11.202Z,30.70
2018-07-04T13:35:26.809Z,30.60
2018-07-04T13:40:42.687Z,30.60
2018-07-04T13:45:58.600Z,27.40
2018-07-04T13:51:14.389Z,26.80
2018-07-04T14:01:39.532Z,32.30
2018-07-04T14:06:55.286Z,32.40
2018-07-04T14:12:10.879Z,29.40
2018-07-04T14:17:26.714Z,29.10
2018-07-04T14:22:42.612Z,30.30
2018-07-04T14:27:58.398Z,32.30
2018-07-04T14:33:14.223Z,32.60
2018-07-04T14:38:29.963Z,34.10
2018-07-04T14:43:45.661Z,34.80
2018-07-04T14:49:01.671Z,34.10
2018-07-04T14:54:18.591Z,30.90
2018-07-04T14:59:34.404Z,29.70
2018-07-04T15:04:50.304Z,29.70
2018-07-04T15:10:05.724Z,32.20
2018-07-04T15:15:21.454Z,34.00
2018-07-04T15:20:37.185Z,35.80
2018-07-04T15:25:52.665Z,36.50
2018-07-04T15:31:08.537Z,36.20
2018-07-04T15:36:24.642Z,36.10
2018-07-04T15:41:40.303Z,36.10
2018-07-04T15:46:55.842Z,36.50
2018-07-04T15:52:11.596Z,36.80
2018-07-04T15:57:27.417Z,37.20
2018-07-04T16:02:43.123Z,37.00
2018-07-04T16:07:58.878Z,38.80
2018-07-04T16:13:14.775Z,37.90
2018-07-04T16:18:30.793Z,38.30
2018-07-04T16:23:46.461Z,37.50
2018-07-04T16:29:02.489Z,35.50
2018-07-04T16:34:17.952Z,36.00
2018-07-04T16:39:34.787Z,36.40
2018-07-04T16:44:50.356Z,35.30
2018-07-04T16:50:06.569Z,35.40
2018-07-04T16:55:22.148Z,35.10
2018-07-04T17:00:37.993Z,32.30
2018-07-04T17:05:54.914Z,29.60
2018-07-04T17:11:10.476Z,28.40
2018-07-04T17:16:27.377Z,27.70
2018-07-04T17:21:42.973Z,27.90
2018-07-04T17:26:58.786Z,27.90
2018-07-04T17:32:14.686Z,27.90
2018-07-04T17:37:30.247Z,27.50
2018-07-04T17:42:45.876Z,27.00
2018-07-04T17:48:01.560Z,26.90
2018-07-04T17:53:17.252Z,26.90
2018-07-04T17:58:33.150Z,26.60
2018-07-04T18:03:48.857Z,26.20
2018-07-04T18:09:04.864Z,26.30
2018-07-04T18:14:20.670Z,26.10
2018-07-04T18:19:36.292Z,26.10
2018-07-04T18:24:51.781Z,25.80
2018-07-04T18:30:07.388Z,25.50
2018-07-04T18:35:23.208Z,25.50
2018-07-04T18:45:48.228Z,25.30
2018-07-04T18:51:04.015Z,25.10
2018-07-04T18:56:19.746Z,24.70
2018-07-04T19:01:35.207Z,24.40
2018-07-04T19:06:51.621Z,24.10
2018-07-04T19:17:16.758Z,23.40
2018-07-04T19:27:42.135Z,22.40
2018-07-04T19:32:57.699Z,21.90
2018-07-04T19:38:13.384Z,21.80
2018-07-04T19:43:29.102Z,21.90
2018-07-04T19:48:44.723Z,21.90
2018-07-04T19:54:00.787Z,21.90
2018-07-04T19:59:16.458Z,21.90
2018-07-04T20:04:32.295Z,21.70
2018-07-04T20:09:47.945Z,21.60
2018-07-04T20:15:03.547Z,21.50
2018-07-04T20:20:19.934Z,21.40
2018-07-04T20:25:36.165Z,21.40
2018-07-04T20:36:01.495Z,20.90
2018-07-04T20:41:17.293Z,20.70
2018-07-04T20:46:32.990Z,20.50
2018-07-04T20:51:48.763Z,20.10
2018-07-04T20:57:04.608Z,19.90
2018-07-04T21:02:20.499Z,19.90
2018-07-04T21:07:36.289Z,19.80
2018-07-04T21:12:52.159Z,19.50
2018-07-04T21:18:07.953Z,19.40
2018-07-04T21:23:25.038Z,19.10
2018-07-04T21:28:40.472Z,19.10
2018-07-04T21:33:56.364Z,19.10
2018-07-04T21:39:12.156Z,19.00
2018-07-04T21:44:28.075Z,18.90
2018-07-04T21:49:43.674Z,18.80
2018-07-04T21:54:59.651Z,18.60
2018-07-04T22:00:19.290Z,18.60
2018-07-04T22:05:35.234Z,18.60
2018-07-04T22:10:51.025Z,18.50
2018-07-04T22:16:06.520Z,18.70
2018-07-04T22:26:31.854Z,18.70
2018-07-04T22:31:47.657Z,18.80
2018-07-04T22:37:03.184Z,18.90
2018-07-04T22:42:19.141Z,18.80
2018-07-04T22:47:34.810Z,18.40
2018-07-04T22:52:50.634Z,18.20
2018-07-04T22:58:06.188Z,18.30
2018-07-04T23:03:21.783Z,18.40
2018-07-04T23:08:37.393Z,18.40
2018-07-04T23:19:02.736Z,18.30
2018-07-04T23:24:18.538Z,18.00
2018-07-04T23:29:34.329Z,17.90
2018-07-04T23:34:49.935Z,17.70
2018-07-04T23:40:05.720Z,17.60
2018-07-04T23:45:21.226Z,17.30
2018-07-04T23:50:36.796Z,17.00
2018-07-04T23:55:52.817Z,16.90
